sensor_id;sensor_type;location;lat;lon;timestamp;P1;durP1;ratioP1;P2;durP2;ratioP2
31808;SDS011;18379;48.208;-1.518;2023-04-19T00:04:52;66.10;;;50.87;;
31808;SDS011;18379;48.208;-1.518;2023-04-19T00:09:54;72.67;;;54.63;;
31808;SDS011;18379;48.208;-1.518;2023-04-19T00:14:55;72.00;;;51.73;;
31808;SDS011;18379;48.208;-1.518;2023-04-19T00:19:56;66.70;;;53.47;;
31808;SDS011;18379;48.208;-1.518;2023-04-19T00:24:57;65.63;;;52.30;;
31808;SDS011;18379;48.208;-1.518;2023-04-19T00:29:58;114.17;;;67.90;;
31808;SDS011;18379;48.208;-1.518;2023-04-19T00:35:00;66.33;;;55.43;;
31808;SDS011;18379;48.208;-1.518;2023-04-19T00:40:01;65.13;;;52.80;;
31808;SDS011;18379;48.208;-1.518;2023-04-19T00:45:03;63.03;;;50.27;;
31808;SDS011;18379;48.208;-1.518;2023-04-19T00:50:05;60.40;;;50.80;;
31808;SDS011;18379;48.208;-1.518;2023-04-19T00:55:06;59.03;;;51.27;;
31808;SDS011;18379;48.208;-1.518;2023-04-19T01:06:04;65.03;;;51.43;;
31808;SDS011;18379;48.208;-1.518;2023-04-19T01:11:05;62.90;;;51.27;;
31808;SDS011;18379;48.208;-1.518;2023-04-19T01:16:16;71.57;;;55.53;;
31808;SDS011;18379;48.208;-1.518;2023-04-19T01:21:26;69.87;;;56.50;;
31808;SDS011;18379;48.208;-1.518;2023-04-19T01:26:30;60.17;;;51.60;;
31808;SDS011;18379;48.208;-1.518;2023-04-19T01:31:31;62.43;;;50.50;;
31808;SDS011;18379;48.208;-1.518;2023-04-19T01:36:32;64.73;;;51.37;;
31808;SDS011;18379;48.208;-1.518;2023-04-19T01:41:33;68.10;;;52.80;;
31808;SDS011;18379;48.208;-1.518;2023-04-19T01:46:33;64.43;;;51.77;;
31808;SDS011;18379;48.208;-1.518;2023-04-19T01:51:36;67.77;;;51.83;;
31808;SDS011;18379;48.208;-1.518;2023-04-19T01:56:37;65.60;;;51.50;;
31808;SDS011;18379;48.208;-1.518;2023-04-19T02:01:38;66.43;;;52.43;;
31808;SDS011;18379;48.208;-1.518;2023-04-19T02:06:39;67.90;;;52.63;;
31808;SDS011;18379;48.208;-1.518;2023-04-19T02:11:40;75.33;;;54.17;;
31808;SDS011;18379;48.208;-1.518;2023-04-19T02:16:41;84.93;;;55.40;;
31808;SDS011;18379;48.208;-1.518;2023-04-19T02:21:42;91.00;;;57.07;;
31808;SDS011;18379;48.208;-1.518;2023-04-19T02:26:43;89.13;;;57.23;;
31808;SDS011;18379;48.208;-1.518;2023-04-19T02:31:44;82.60;;;56.97;;
31808;SDS011;18379;48.208;-1.518;2023-04-19T02:36:45;73.93;;;56.10;;
31808;SDS011;18379;48.208;-1.518;2023-04-19T02:41:46;76.43;;;56.40;;
31808;SDS011;18379;48.208;-1.518;2023-04-19T02:46:53;83.93;;;57.07;;
31808;SDS011;18379;48.208;-1.518;2023-04-19T02:51:54;78.73;;;58.73;;
31808;SDS011;18379;48.208;-1.518;2023-04-19T02:56:55;99.30;;;61.57;;
31808;SDS011;18379;48.208;-1.518;2023-04-19T03:01:56;98.40;;;59.60;;
31808;SDS011;18379;48.208;-1.518;2023-04-19T03:06:57;122.77;;;64.20;;
31808;SDS011;18379;48.208;-1.518;2023-04-19T03:11:58;81.37;;;57.10;;
31808;SDS011;18379;48.208;-1.518;2023-04-19T03:16:59;74.33;;;55.40;;
31808;SDS011;18379;48.208;-1.518;2023-04-19T03:21:59;74.87;;;55.30;;
31808;SDS011;18379;48.208;-1.518;2023-04-19T03:27:01;75.77;;;55.40;;
31808;SDS011;18379;48.208;-1.518;2023-04-19T03:32:02;79.83;;;57.43;;
31808;SDS011;18379;48.208;-1.518;2023-04-19T03:37:03;73.80;;;57.03;;
31808;SDS011;18379;48.208;-1.518;2023-04-19T03:42:04;74.97;;;55.03;;
31808;SDS011;18379;48.208;-1.518;2023-04-19T03:47:05;77.27;;;54.73;;
31808;SDS011;18379;48.208;-1.518;2023-04-19T03:52:06;69.40;;;53.80;;
31808;SDS011;18379;48.208;-1.518;2023-04-19T03:57:06;78.27;;;56.97;;
31808;SDS011;18379;48.208;-1.518;2023-04-19T04:02:08;76.03;;;53.70;;
31808;SDS011;18379;48.208;-1.518;2023-04-19T04:07:08;72.20;;;55.07;;
31808;SDS011;18379;48.208;-1.518;2023-04-19T04:12:09;68.70;;;53.47;;
31808;SDS011;18379;48.208;-1.518;2023-04-19T04:17:12;70.40;;;53.13;;
31808;SDS011;18379;48.208;-1.518;2023-04-19T04:22:13;79.60;;;56.40;;
31808;SDS011;18379;48.208;-1.518;2023-04-19T04:27:13;81.60;;;57.27;;
31808;SDS011;18379;48.208;-1.518;2023-04-19T04:32:19;76.80;;;56.03;;
31808;SDS011;18379;48.208;-1.518;2023-04-19T04:37:22;76.43;;;56.47;;
31808;SDS011;18379;48.208;-1.518;2023-04-19T04:42:23;80.17;;;56.67;;
31808;SDS011;18379;48.208;-1.518;2023-04-19T04:47:29;84.90;;;63.17;;
31808;SDS011;18379;48.208;-1.518;2023-04-19T04:52:30;86.03;;;57.50;;
31808;SDS011;18379;48.208;-1.518;2023-04-19T04:57:31;76.37;;;55.23;;
31808;SDS011;18379;48.208;-1.518;2023-04-19T05:02:32;82.20;;;56.80;;
31808;SDS011;18379;48.208;-1.518;2023-04-19T05:07:33;79.87;;;54.33;;
31808;SDS011;18379;48.208;-1.518;2023-04-19T05:12:33;101.23;;;71.63;;
31808;SDS011;18379;48.208;-1.518;2023-04-19T05:17:35;75.33;;;55.20;;
31808;SDS011;18379;48.208;-1.518;2023-04-19T05:22:36;73.47;;;54.63;;
31808;SDS011;18379;48.208;-1.518;2023-04-19T05:27:37;77.40;;;54.90;;
31808;SDS011;18379;48.208;-1.518;2023-04-19T05:32:38;77.87;;;55.90;;
31808;SDS011;18379;48.208;-1.518;2023-04-19T05:37:39;79.63;;;55.67;;
31808;SDS011;18379;48.208;-1.518;2023-04-19T05:42:41;77.60;;;55.20;;
31808;SDS011;18379;48.208;-1.518;2023-04-19T05:47:42;72.00;;;52.63;;
31808;SDS011;18379;48.208;-1.518;2023-04-19T05:52:43;70.53;;;53.60;;
31808;SDS011;18379;48.208;-1.518;2023-04-19T05:57:44;73.07;;;54.77;;
31808;SDS011;18379;48.208;-1.518;2023-04-19T06:02:45;73.43;;;54.67;;
31808;SDS011;18379;48.208;-1.518;2023-04-19T06:07:46;71.97;;;55.03;;
31808;SDS011;18379;48.208;-1.518;2023-04-19T06:12:47;75.00;;;56.87;;
31808;SDS011;18379;48.208;-1.518;2023-04-19T06:17:47;70.80;;;55.47;;
31808;SDS011;18379;48.208;-1.518;2023-04-19T06:22:49;68.70;;;53.70;;
31808;SDS011;18379;48.208;-1.518;2023-04-19T06:27:50;69.03;;;53.67;;
31808;SDS011;18379;48.208;-1.518;2023-04-19T06:32:51;68.63;;;55.40;;
31808;SDS011;18379;48.208;-1.518;2023-04-19T06:37:52;73.80;;;57.00;;
31808;SDS011;18379;48.208;-1.518;2023-04-19T06:42:53;64.97;;;53.70;;
31808;SDS011;18379;48.208;-1.518;2023-04-19T06:47:54;67.33;;;55.83;;
31808;SDS011;18379;48.208;-1.518;2023-04-19T06:52:55;83.33;;;68.83;;
31808;SDS011;18379;48.208;-1.518;2023-04-19T06:57:56;83.93;;;69.73;;
31808;SDS011;18379;48.208;-1.518;2023-04-19T07:02:58;81.70;;;67.87;;
31808;SDS011;18379;48.208;-1.518;2023-04-19T07:08:00;73.57;;;63.37;;
31808;SDS011;18379;48.208;-1.518;2023-04-19T07:13:02;63.20;;;56.37;;
31808;SDS011;18379;48.208;-1.518;2023-04-19T07:18:03;58.43;;;52.33;;
31808;SDS011;18379;48.208;-1.518;2023-04-19T07:23:06;55.60;;;49.67;;
31808;SDS011;18379;48.208;-1.518;2023-04-19T07:28:06;55.83;;;49.73;;
31808;SDS011;18379;48.208;-1.518;2023-04-19T07:33:07;56.10;;;49.97;;
31808;SDS011;18379;48.208;-1.518;2023-04-19T07:38:09;57.10;;;50.93;;
31808;SDS011;18379;48.208;-1.518;2023-04-19T07:43:12;56.30;;;50.37;;
31808;SDS011;18379;48.208;-1.518;2023-04-19T07:48:13;58.23;;;51.00;;
31808;SDS011;18379;48.208;-1.518;2023-04-19T07:53:15;58.10;;;51.83;;
31808;SDS011;18379;48.208;-1.518;2023-04-19T07:58:17;60.47;;;53.90;;
31808;SDS011;18379;48.208;-1.518;2023-04-19T08:03:18;60.20;;;53.77;;
31808;SDS011;18379;48.208;-1.518;2023-04-19T08:08:18;59.10;;;52.73;;
31808;SDS011;18379;48.208;-1.518;2023-04-19T08:13:19;58.17;;;52.00;;
31808;SDS011;18379;48.208;-1.518;2023-04-19T08:18:21;58.07;;;51.97;;
31808;SDS011;18379;48.208;-1.518;2023-04-19T08:23:25;55.87;;;50.37;;
31808;SDS011;18379;48.208;-1.518;2023-04-19T08:28:26;56.63;;;50.97;;
31808;SDS011;18379;48.208;-1.518;2023-04-19T08:33:28;57.23;;;51.33;;
31808;SDS011;18379;48.208;-1.518;2023-04-19T08:38:28;54.27;;;49.00;;
31808;SDS011;18379;48.208;-1.518;2023-04-19T08:43:30;57.90;;;52.53;;
31808;SDS011;18379;48.208;-1.518;2023-04-19T08:48:44;53.43;;;48.60;;
31808;SDS011;18379;48.208;-1.518;2023-04-19T08:53:55;56.30;;;50.83;;
31808;SDS011;18379;48.208;-1.518;2023-04-19T08:59:00;57.93;;;52.20;;
31808;SDS011;18379;48.208;-1.518;2023-04-19T09:04:06;53.87;;;48.90;;
31808;SDS011;18379;48.208;-1.518;2023-04-19T09:14:17;58.23;;;53.00;;
31808;SDS011;18379;48.208;-1.518;2023-04-19T09:19:20;57.47;;;52.30;;
31808;SDS011;18379;48.208;-1.518;2023-04-19T09:24:36;56.27;;;51.23;;
31808;SDS011;18379;48.208;-1.518;2023-04-19T09:29:41;53.63;;;48.87;;
31808;SDS011;18379;48.208;-1.518;2023-04-19T09:34:58;59.63;;;54.37;;
31808;SDS011;18379;48.208;-1.518;2023-04-19T09:45:42;56.37;;;51.23;;
31808;SDS011;18379;48.208;-1.518;2023-04-19T09:50:58;56.13;;;51.23;;
31808;SDS011;18379;48.208;-1.518;2023-04-19T09:56:02;58.30;;;53.00;;
31808;SDS011;18379;48.208;-1.518;2023-04-19T10:01:05;53.90;;;49.20;;
31808;SDS011;18379;48.208;-1.518;2023-04-19T10:06:13;56.37;;;51.67;;
31808;SDS011;18379;48.208;-1.518;2023-04-19T10:11:20;55.27;;;50.97;;
31808;SDS011;18379;48.208;-1.518;2023-04-19T10:16:22;58.67;;;53.77;;
31808;SDS011;18379;48.208;-1.518;2023-04-19T10:21:29;55.83;;;51.53;;
31808;SDS011;18379;48.208;-1.518;2023-04-19T10:27:19;59.23;;;54.43;;
31808;SDS011;18379;48.208;-1.518;2023-04-19T10:32:06;59.30;;;54.23;;
31808;SDS011;18379;48.208;-1.518;2023-04-19T10:37:12;54.47;;;50.20;;
31808;SDS011;18379;48.208;-1.518;2023-04-19T10:52:52;66.70;;;61.17;;
31808;SDS011;18379;48.208;-1.518;2023-04-19T10:58:00;58.20;;;53.47;;
31808;SDS011;18379;48.208;-1.518;2023-04-19T11:08:43;55.00;;;50.90;;
31808;SDS011;18379;48.208;-1.518;2023-04-19T11:13:46;55.37;;;51.33;;
31808;SDS011;18379;48.208;-1.518;2023-04-19T11:18:47;56.60;;;52.50;;
31808;SDS011;18379;48.208;-1.518;2023-04-19T11:24:04;56.23;;;52.03;;
31808;SDS011;18379;48.208;-1.518;2023-04-19T11:29:06;53.23;;;49.53;;
31808;SDS011;18379;48.208;-1.518;2023-04-19T11:34:07;53.77;;;50.00;;
31808;SDS011;18379;48.208;-1.518;2023-04-19T11:39:07;53.27;;;49.50;;
31808;SDS011;18379;48.208;-1.518;2023-04-19T11:44:12;55.10;;;51.00;;
31808;SDS011;18379;48.208;-1.518;2023-04-19T11:49:28;56.97;;;52.60;;
31808;SDS011;18379;48.208;-1.518;2023-04-19T11:54:30;55.23;;;51.43;;
31808;SDS011;18379;48.208;-1.518;2023-04-19T11:59:31;54.63;;;50.73;;
31808;SDS011;18379;48.208;-1.518;2023-04-19T12:04:34;53.77;;;50.13;;
31808;SDS011;18379;48.208;-1.518;2023-04-19T12:09:35;52.93;;;49.17;;
31808;SDS011;18379;48.208;-1.518;2023-04-19T12:14:37;51.80;;;48.43;;
31808;SDS011;18379;48.208;-1.518;2023-04-19T12:19:42;53.43;;;49.93;;
31808;SDS011;18379;48.208;-1.518;2023-04-19T12:24:45;53.83;;;50.23;;
31808;SDS011;18379;48.208;-1.518;2023-04-19T12:29:46;53.13;;;49.63;;
31808;SDS011;18379;48.208;-1.518;2023-04-19T12:34:46;52.37;;;49.07;;
31808;SDS011;18379;48.208;-1.518;2023-04-19T12:39:47;54.60;;;51.07;;
31808;SDS011;18379;48.208;-1.518;2023-04-19T12:44:48;55.83;;;52.07;;
31808;SDS011;18379;48.208;-1.518;2023-04-19T12:49:49;54.80;;;51.20;;
31808;SDS011;18379;48.208;-1.518;2023-04-19T12:54:50;54.47;;;50.97;;
31808;SDS011;18379;48.208;-1.518;2023-04-19T12:59:51;55.07;;;51.47;;
31808;SDS011;18379;48.208;-1.518;2023-04-19T13:04:51;54.33;;;50.73;;
31808;SDS011;18379;48.208;-1.518;2023-04-19T13:09:52;56.47;;;52.77;;
31808;SDS011;18379;48.208;-1.518;2023-04-19T13:14:53;65.40;;;60.83;;
31808;SDS011;18379;48.208;-1.518;2023-04-19T13:19:54;60.23;;;56.20;;
31808;SDS011;18379;48.208;-1.518;2023-04-19T13:24:55;63.90;;;59.67;;
31808;SDS011;18379;48.208;-1.518;2023-04-19T13:29:56;63.90;;;59.67;;
31808;SDS011;18379;48.208;-1.518;2023-04-19T13:34:57;61.80;;;57.67;;
31808;SDS011;18379;48.208;-1.518;2023-04-19T13:39:58;64.60;;;60.07;;
31808;SDS011;18379;48.208;-1.518;2023-04-19T13:44:58;63.00;;;58.70;;
31808;SDS011;18379;48.208;-1.518;2023-04-19T13:49:59;64.10;;;59.77;;
31808;SDS011;18379;48.208;-1.518;2023-04-19T13:55:01;56.53;;;52.83;;
31808;SDS011;18379;48.208;-1.518;2023-04-19T14:00:01;54.70;;;51.20;;
31808;SDS011;18379;48.208;-1.518;2023-04-19T14:05:02;54.13;;;50.60;;
31808;SDS011;18379;48.208;-1.518;2023-04-19T14:10:04;52.67;;;49.20;;
31808;SDS011;18379;48.208;-1.518;2023-04-19T14:15:06;52.63;;;49.43;;
31808;SDS011;18379;48.208;-1.518;2023-04-19T14:20:07;53.47;;;50.03;;
31808;SDS011;18379;48.208;-1.518;2023-04-19T14:25:08;51.63;;;48.43;;
31808;SDS011;18379;48.208;-1.518;2023-04-19T14:30:09;52.57;;;49.37;;
31808;SDS011;18379;48.208;-1.518;2023-04-19T14:35:10;52.13;;;48.93;;
31808;SDS011;18379;48.208;-1.518;2023-04-19T14:40:11;52.27;;;48.87;;
31808;SDS011;18379;48.208;-1.518;2023-04-19T14:45:13;50.83;;;47.83;;
31808;SDS011;18379;48.208;-1.518;2023-04-19T14:50:18;51.77;;;48.67;;
31808;SDS011;18379;48.208;-1.518;2023-04-19T14:55:21;53.43;;;50.03;;
31808;SDS011;18379;48.208;-1.518;2023-04-19T15:00:26;57.20;;;53.27;;
31808;SDS011;18379;48.208;-1.518;2023-04-19T15:05:27;53.83;;;50.33;;
31808;SDS011;18379;48.208;-1.518;2023-04-19T15:10:28;52.43;;;49.20;;
31808;SDS011;18379;48.208;-1.518;2023-04-19T15:15:29;64.67;;;60.07;;
31808;SDS011;18379;48.208;-1.518;2023-04-19T15:20:30;64.67;;;60.13;;
31808;SDS011;18379;48.208;-1.518;2023-04-19T15:25:30;63.43;;;59.10;;
31808;SDS011;18379;48.208;-1.518;2023-04-19T15:30:31;62.13;;;57.87;;
31808;SDS011;18379;48.208;-1.518;2023-04-19T15:35:32;57.47;;;53.60;;
31808;SDS011;18379;48.208;-1.518;2023-04-19T15:40:33;53.63;;;50.23;;
31808;SDS011;18379;48.208;-1.518;2023-04-19T15:45:37;50.57;;;47.27;;
31808;SDS011;18379;48.208;-1.518;2023-04-19T15:50:38;53.00;;;49.80;;
31808;SDS011;18379;48.208;-1.518;2023-04-19T15:55:39;52.63;;;49.13;;
31808;SDS011;18379;48.208;-1.518;2023-04-19T16:00:40;52.43;;;49.23;;
31808;SDS011;18379;48.208;-1.518;2023-04-19T16:05:41;52.43;;;49.23;;
31808;SDS011;18379;48.208;-1.518;2023-04-19T16:10:43;52.47;;;49.27;;
31808;SDS011;18379;48.208;-1.518;2023-04-19T16:15:47;53.77;;;50.37;;
31808;SDS011;18379;48.208;-1.518;2023-04-19T16:20:48;55.23;;;51.60;;
31808;SDS011;18379;48.208;-1.518;2023-04-19T16:25:52;55.60;;;52.00;;
31808;SDS011;18379;48.208;-1.518;2023-04-19T16:30:53;59.05;;;54.92;;
31808;SDS011;18379;48.208;-1.518;2023-04-19T16:35:54;61.17;;;57.05;;
31808;SDS011;18379;48.208;-1.518;2023-04-19T16:40:54;60.10;;;56.00;;
31808;SDS011;18379;48.208;-1.518;2023-04-19T16:45:55;60.05;;;55.95;;
31808;SDS011;18379;48.208;-1.518;2023-04-19T16:50:56;62.15;;;57.85;;
31808;SDS011;18379;48.208;-1.518;2023-04-19T16:55:57;57.90;;;53.93;;
31808;SDS011;18379;48.208;-1.518;2023-04-19T17:00:59;57.50;;;53.80;;
31808;SDS011;18379;48.208;-1.518;2023-04-19T17:06:01;67.60;;;62.87;;
31808;SDS011;18379;48.208;-1.518;2023-04-19T17:11:02;62.90;;;58.63;;
31808;SDS011;18379;48.208;-1.518;2023-04-19T17:16:03;59.27;;;55.37;;
31808;SDS011;18379;48.208;-1.518;2023-04-19T17:21:04;55.73;;;52.13;;
31808;SDS011;18379;48.208;-1.518;2023-04-19T17:26:05;57.50;;;53.70;;
31808;SDS011;18379;48.208;-1.518;2023-04-19T17:31:06;56.45;;;52.75;;
31808;SDS011;18379;48.208;-1.518;2023-04-19T17:36:08;57.40;;;53.63;;
31808;SDS011;18379;48.208;-1.518;2023-04-19T17:41:08;57.78;;;53.88;;
31808;SDS011;18379;48.208;-1.518;2023-04-19T17:46:15;57.83;;;54.03;;
31808;SDS011;18379;48.208;-1.518;2023-04-19T17:51:18;63.50;;;59.00;;
31808;SDS011;18379;48.208;-1.518;2023-04-19T17:56:18;58.97;;;55.07;;
31808;SDS011;18379;48.208;-1.518;2023-04-19T18:01:21;58.47;;;54.57;;
31808;SDS011;18379;48.208;-1.518;2023-04-19T18:06:25;60.03;;;56.00;;
31808;SDS011;18379;48.208;-1.518;2023-04-19T18:11:26;58.23;;;54.23;;
31808;SDS011;18379;48.208;-1.518;2023-04-19T18:16:27;56.30;;;52.70;;
31808;SDS011;18379;48.208;-1.518;2023-04-19T18:21:28;95.57;;;87.00;;
31808;SDS011;18379;48.208;-1.518;2023-04-19T18:26:39;56.80;;;53.10;;
31808;SDS011;18379;48.208;-1.518;2023-04-19T18:31:41;52.07;;;48.90;;
31808;SDS011;18379;48.208;-1.518;2023-04-19T18:36:42;52.80;;;49.60;;
31808;SDS011;18379;48.208;-1.518;2023-04-19T18:41:42;52.33;;;49.13;;
31808;SDS011;18379;48.208;-1.518;2023-04-19T18:46:43;52.63;;;49.23;;
31808;SDS011;18379;48.208;-1.518;2023-04-19T18:51:44;52.23;;;48.93;;
31808;SDS011;18379;48.208;-1.518;2023-04-19T18:56:45;52.37;;;49.03;;
31808;SDS011;18379;48.208;-1.518;2023-04-19T19:01:46;52.70;;;49.27;;
31808;SDS011;18379;48.208;-1.518;2023-04-19T19:06:48;53.50;;;50.17;;
31808;SDS011;18379;48.208;-1.518;2023-04-19T19:11:49;54.17;;;50.73;;
31808;SDS011;18379;48.208;-1.518;2023-04-19T19:16:50;52.67;;;49.23;;
31808;SDS011;18379;48.208;-1.518;2023-04-19T19:21:51;51.23;;;47.93;;
31808;SDS011;18379;48.208;-1.518;2023-04-19T19:26:52;50.00;;;46.90;;
31808;SDS011;18379;48.208;-1.518;2023-04-19T19:31:55;50.33;;;46.90;;
31808;SDS011;18379;48.208;-1.518;2023-04-19T19:37:02;50.43;;;47.13;;
31808;SDS011;18379;48.208;-1.518;2023-04-19T19:42:03;51.83;;;48.43;;
31808;SDS011;18379;48.208;-1.518;2023-04-19T19:47:05;50.37;;;47.13;;
31808;SDS011;18379;48.208;-1.518;2023-04-19T19:52:06;55.57;;;51.50;;
31808;SDS011;18379;48.208;-1.518;2023-04-19T19:57:07;51.53;;;48.00;;
31808;SDS011;18379;48.208;-1.518;2023-04-19T20:02:07;52.00;;;48.37;;
31808;SDS011;18379;48.208;-1.518;2023-04-19T20:07:10;51.10;;;47.50;;
31808;SDS011;18379;48.208;-1.518;2023-04-19T20:12:11;52.30;;;48.60;;
31808;SDS011;18379;48.208;-1.518;2023-04-19T20:17:12;51.37;;;47.77;;
31808;SDS011;18379;48.208;-1.518;2023-04-19T20:22:13;54.43;;;50.07;;
31808;SDS011;18379;48.208;-1.518;2023-04-19T20:27:14;52.33;;;48.67;;
31808;SDS011;18379;48.208;-1.518;2023-04-19T20:32:15;52.77;;;48.97;;
31808;SDS011;18379;48.208;-1.518;2023-04-19T20:37:19;52.43;;;48.47;;
31808;SDS011;18379;48.208;-1.518;2023-04-19T20:42:22;53.20;;;49.40;;
31808;SDS011;18379;48.208;-1.518;2023-04-19T20:47:23;54.03;;;49.97;;
31808;SDS011;18379;48.208;-1.518;2023-04-19T20:52:24;55.77;;;51.63;;
31808;SDS011;18379;48.208;-1.518;2023-04-19T20:57:25;53.93;;;50.03;;
31808;SDS011;18379;48.208;-1.518;2023-04-19T21:02:26;53.33;;;49.40;;
31808;SDS011;18379;48.208;-1.518;2023-04-19T21:07:28;56.07;;;51.90;;
31808;SDS011;18379;48.208;-1.518;2023-04-19T21:12:29;54.47;;;50.30;;
31808;SDS011;18379;48.208;-1.518;2023-04-19T21:17:30;53.17;;;49.10;;
31808;SDS011;18379;48.208;-1.518;2023-04-19T21:22:32;54.73;;;50.60;;
31808;SDS011;18379;48.208;-1.518;2023-04-19T21:27:33;53.07;;;49.07;;
31808;SDS011;18379;48.208;-1.518;2023-04-19T21:32:33;52.10;;;48.30;;
31808;SDS011;18379;48.208;-1.518;2023-04-19T21:37:35;55.37;;;51.20;;
31808;SDS011;18379;48.208;-1.518;2023-04-19T21:42:36;55.93;;;51.57;;
31808;SDS011;18379;48.208;-1.518;2023-04-19T21:47:37;53.63;;;49.60;;
31808;SDS011;18379;48.208;-1.518;2023-04-19T21:52:38;52.17;;;48.43;;
31808;SDS011;18379;48.208;-1.518;2023-04-19T21:57:39;53.17;;;49.37;;
31808;SDS011;18379;48.208;-1.518;2023-04-19T22:02:41;50.47;;;47.07;;
31808;SDS011;18379;48.208;-1.518;2023-04-19T22:07:42;48.83;;;45.53;;
31808;SDS011;18379;48.208;-1.518;2023-04-19T22:12:44;49.90;;;46.60;;
31808;SDS011;18379;48.208;-1.518;2023-04-19T22:17:45;52.70;;;48.73;;
31808;SDS011;18379;48.208;-1.518;2023-04-19T22:22:48;52.80;;;48.83;;
31808;SDS011;18379;48.208;-1.518;2023-04-19T22:27:49;48.23;;;45.03;;
31808;SDS011;18379;48.208;-1.518;2023-04-19T22:32:52;47.37;;;44.17;;
31808;SDS011;18379;48.208;-1.518;2023-04-19T22:37:53;46.93;;;43.90;;
31808;SDS011;18379;48.208;-1.518;2023-04-19T22:42:55;53.00;;;49.10;;
31808;SDS011;18379;48.208;-1.518;2023-04-19T22:47:56;51.77;;;48.00;;
31808;SDS011;18379;48.208;-1.518;2023-04-19T22:52:58;48.23;;;44.93;;
31808;SDS011;18379;48.208;-1.518;2023-04-19T22:57:59;47.00;;;43.87;;
31808;SDS011;18379;48.208;-1.518;2023-04-19T23:03:00;47.30;;;44.07;;
31808;SDS011;18379;48.208;-1.518;2023-04-19T23:08:01;45.13;;;42.27;;
31808;SDS011;18379;48.208;-1.518;2023-04-19T23:13:04;45.80;;;42.77;;
31808;SDS011;18379;48.208;-1.518;2023-04-19T23:18:05;44.90;;;42.10;;
31808;SDS011;18379;48.208;-1.518;2023-04-19T23:23:06;45.33;;;42.53;;
31808;SDS011;18379;48.208;-1.518;2023-04-19T23:28:08;44.57;;;41.77;;
31808;SDS011;18379;48.208;-1.518;2023-04-19T23:33:12;45.60;;;42.53;;
31808;SDS011;18379;48.208;-1.518;2023-04-19T23:38:13;48.00;;;44.70;;
31808;SDS011;18379;48.208;-1.518;2023-04-19T23:43:13;48.17;;;44.83;;
31808;SDS011;18379;48.208;-1.518;2023-04-19T23:48:14;47.10;;;43.90;;
31808;SDS011;18379;48.208;-1.518;2023-04-19T23:53:16;45.90;;;42.87;;
31808;SDS011;18379;48.208;-1.518;2023-04-19T23:58:17;46.97;;;43.70;;
